Time;durP1;ratioP1;P1;durP2;ratioP2;P2;SDS_P1;SDS_P2;PMS_P1;PMS_P2;Temp;Humidity;BMP_temperature;BMP_pressure;BME280_temperature;BME280_humidity;BME280_pressure;Samples;Min_cycle;Max_cycle;Signal;HPM_P1;HPM_P2
2024/02/08 00:00:09;;;;;;;;;;;;;;;4.29;100.00;98824.84;108463;1251;61096;-70
2024/02/08 00:02:36;;;;;;;;;;;;;;;4.29;100.00;98823.38;108330;1251;61231;-71
2024/02/08 00:05:06;;;;;;;;;;;;;;;4.28;100.00;98831.61;108432;1255;73111;-70
2024/02/08 00:07:33;;;;;;;;;;;;;;;4.26;100.00;98842.27;108339;1251;71161;-68
2024/02/08 00:10:01;;;;;;;;;;;;;;;4.27;100.00;98837.10;108469;1251;73044;-69
2024/02/08 00:12:28;;;;;;;;;;;;;;;4.27;100.00;98841.65;108318;1251;61109;-69
2024/02/08 00:14:55;;;;;;;;;;;;;;;4.26;100.00;98847.02;108558;1251;61217;-69
2024/02/08 00:17:22;;;;;;;;;;;;;;;4.26;100.00;98848.73;108346;1251;75065;-69
2024/02/08 00:19:49;;;;;;;;;;;;;;;4.26;100.00;98849.73;108398;1251;72495;-70
2024/02/08 00:22:20;;;;;;;;;;;;;;;4.27;100.00;98844.33;108371;1251;71530;-70
2024/02/08 00:24:47;;;;;;;;;;;;;;;4.27;100.00;98857.07;108389;1251;61201;-70
2024/02/08 00:27:18;;;;;;;;;;;;;;;4.27;100.00;98861.56;108426;1251;61237;-70
2024/02/08 00:29:44;;;;;;;;;;;;;;;4.27;100.00;98880.17;108312;1251;74548;-69
2024/02/08 00:32:11;;;;;;;;;;;;;;;4.28;100.00;98886.63;108361;1251;73334;-70
2024/02/08 00:34:40;;;;;;;;;;;;;;;4.28;100.00;98884.34;108351;1251;73061;-69
2024/02/08 00:37:07;;;;;;;;;;;;;;;4.28;100.00;98886.90;108357;1251;61310;-69
2024/02/08 00:39:34;;;;;;;;;;;;;;;4.28;100.00;98892.96;108396;1251;61230;-70
2024/02/08 00:42:01;;;;;;;;;;;;;;;4.27;100.00;98902.05;108387;1251;75871;-69
2024/02/08 00:44:28;;;;;;;;;;;;;;;4.27;100.00;98897.08;108362;1251;73874;-69
2024/02/08 00:46:55;;;;;;;;;;;;;;;4.27;100.00;98893.12;108373;1251;72453;-68
2024/02/08 00:49:22;;;;;;;;;;;;;;;4.27;100.00;98895.55;108372;1251;61202;-68
2024/02/08 00:51:49;;;;;;;;;;;;;;;4.25;100.00;98894.23;108402;1251;61173;-71
2024/02/08 00:54:16;;;;;;;;;;;;;;;4.26;100.00;98896.51;108413;1256;75210;-70
2024/02/08 00:56:43;;;;;;;;;;;;;;;4.25;100.00;98899.09;108244;1251;73254;-70
2024/02/08 00:59:10;;;;;;;;;;;;;;;4.23;100.00;98900.55;108338;1251;74229;-69
2024/02/08 01:01:40;;;;;;;;;;;;;;;4.23;100.00;98907.27;108337;1251;61164;-70
2024/02/08 01:04:08;;;;;;;;;;;;;;;4.21;100.00;98911.59;108432;1251;61221;-70
2024/02/08 01:06:40;;;;;;;;;;;;;;;4.21;100.00;98900.64;108358;1251;72724;-71
2024/02/08 01:09:08;;;;;;;;;;;;;;;4.22;100.00;98898.44;108307;1251;73041;-69
2024/02/08 01:11:35;;;;;;;;;;;;;;;4.22;100.00;98900.29;108384;1251;72915;-70
2024/02/08 01:14:02;;;;;;;;;;;;;;;4.24;100.00;98905.05;108289;1251;62517;-69
2024/02/08 01:16:33;;;;;;;;;;;;;;;4.25;100.00;98902.46;108318;1251;61096;-69
2024/02/08 01:19:00;;;;;;;;;;;;;;;4.23;100.00;98897.86;108321;1251;73112;-69
2024/02/08 01:21:31;;;;;;;;;;;;;;;4.24;100.00;98899.92;108488;1256;73047;-71
2024/02/08 01:23:58;;;;;;;;;;;;;;;4.23;100.00;98907.85;108291;1251;71241;-68
2024/02/08 01:26:24;;;;;;;;;;;;;;;4.22;100.00;98927.60;108494;1251;61085;-69
2024/02/08 01:28:54;;;;;;;;;;;;;;;4.20;100.00;98929.54;108298;1254;61090;-69
2024/02/08 01:31:21;;;;;;;;;;;;;;;4.21;100.00;98927.70;108316;1251;75215;-69
2024/02/08 01:33:50;;;;;;;;;;;;;;;4.19;100.00;98942.71;108390;1251;73346;-70
2024/02/08 01:36:17;;;;;;;;;;;;;;;4.18;100.00;98942.02;108373;1251;73034;-70
2024/02/08 01:38:44;;;;;;;;;;;;;;;4.18;100.00;98943.71;108412;1251;60886;-68
2024/02/08 01:41:11;;;;;;;;;;;;;;;4.17;100.00;98951.63;108351;1254;61326;-69
2024/02/08 01:43:38;;;;;;;;;;;;;;;4.16;100.00;98954.95;108395;1251;74379;-70
2024/02/08 01:46:07;;;;;;;;;;;;;;;4.16;100.00;98946.17;108377;1251;73335;-69
2024/02/08 01:48:36;;;;;;;;;;;;;;;4.15;100.00;98943.90;108322;1251;73196;-70
2024/02/08 01:51:04;;;;;;;;;;;;;;;4.16;100.00;98949.77;108420;1251;61108;-71
2024/02/08 01:53:32;;;;;;;;;;;;;;;4.16;100.00;98946.55;108379;1251;61238;-70
2024/02/08 01:56:03;;;;;;;;;;;;;;;4.15;100.00;98958.32;108444;1251;74607;-69
2024/02/08 01:58:30;;;;;;;;;;;;;;;4.13;100.00;98952.86;108385;1251;71441;-70
2024/02/08 02:00:59;;;;;;;;;;;;;;;4.11;100.00;98959.56;108424;1251;71284;-69
2024/02/08 02:03:26;;;;;;;;;;;;;;;4.09;100.00;98957.81;108399;1256;61179;-70
2024/02/08 02:05:53;;;;;;;;;;;;;;;4.08;100.00;98955.67;108320;1253;62234;-70
2024/02/08 02:08:21;;;;;;;;;;;;;;;4.07;100.00;98955.04;108343;1256;75636;-70
2024/02/08 02:10:53;;;;;;;;;;;;;;;4.07;100.00;98963.55;108349;1251;71805;-69
2024/02/08 02:13:20;;;;;;;;;;;;;;;4.06;100.00;98961.80;108376;1251;71788;-70
2024/02/08 02:15:47;;;;;;;;;;;;;;;4.03;100.00;98960.35;108395;1251;61221;-70
2024/02/08 02:18:16;;;;;;;;;;;;;;;4.02;100.00;98966.95;108378;1251;61202;-71
2024/02/08 02:20:42;;;;;;;;;;;;;;;4.00;100.00;98966.55;108410;1251;72477;-70
2024/02/08 02:23:09;;;;;;;;;;;;;;;3.98;100.00;98969.14;108344;1251;73198;-71
2024/02/08 02:25:38;;;;;;;;;;;;;;;3.97;100.00;98974.14;108238;1256;73932;-70
2024/02/08 02:28:08;;;;;;;;;;;;;;;3.96;100.00;98974.88;108341;1251;60973;-69
2024/02/08 02:30:35;;;;;;;;;;;;;;;3.95;100.00;98985.71;108389;1251;61121;-70
2024/02/08 02:33:06;;;;;;;;;;;;;;;3.95;100.00;98990.03;108389;1251;74961;-69
2024/02/08 02:35:33;;;;;;;;;;;;;;;3.94;100.00;98987.11;108274;1251;71512;-70
2024/02/08 02:38:02;;;;;;;;;;;;;;;3.92;100.00;98987.42;108650;1251;71593;-69
2024/02/08 02:40:30;;;;;;;;;;;;;;;3.91;100.00;98995.59;108351;1251;62313;-68
2024/02/08 02:42:57;;;;;;;;;;;;;;;3.89;100.00;98999.45;108285;1251;61114;-70
2024/02/08 02:45:28;;;;;;;;;;;;;;;3.87;100.00;99001.33;108310;1251;73913;-69
2024/02/08 02:47:58;;;;;;;;;;;;;;;3.86;100.00;99007.23;108437;1251;72935;-70
2024/02/08 02:50:24;;;;;;;;;;;;;;;3.85;100.00;99009.98;108392;1251;70650;-70
2024/02/08 02:52:51;;;;;;;;;;;;;;;3.83;100.00;99005.89;108369;1251;62376;-70
2024/02/08 02:55:19;;;;;;;;;;;;;;;3.82;100.00;98996.31;108301;1251;61193;-71
2024/02/08 02:57:46;;;;;;;;;;;;;;;3.83;100.00;98994.05;108375;1251;74633;-69
2024/02/08 03:00:22;;;;;;;;;;;;;;;3.83;100.00;98987.51;108354;1251;74261;-69
2024/02/08 03:02:52;;;;;;;;;;;;;;;3.81;100.00;98990.27;108299;1251;71299;-69
2024/02/08 03:05:20;;;;;;;;;;;;;;;3.79;100.00;98991.06;108542;1251;61093;-69
2024/02/08 03:07:48;;;;;;;;;;;;;;;3.75;100.00;98994.34;108371;1251;60997;-68
2024/02/08 03:10:19;;;;;;;;;;;;;;;3.71;100.00;99004.45;108423;1251;74734;-69
2024/02/08 03:12:47;;;;;;;;;;;;;;;3.69;100.00;99009.98;108368;1251;72577;-70
2024/02/08 03:15:13;;;;;;;;;;;;;;;3.67;100.00;99016.83;108221;1251;72643;-67
2024/02/08 03:17:40;;;;;;;;;;;;;;;3.66;100.00;99028.34;108404;1251;61275;-70
2024/02/08 03:20:16;;;;;;;;;;;;;;;3.67;100.00;99033.56;108355;1251;61253;-71
2024/02/08 03:22:46;;;;;;;;;;;;;;;3.69;100.00;99038.71;108351;1251;75133;-71
2024/02/08 03:25:15;;;;;;;;;;;;;;;3.71;100.00;99044.64;108346;1251;73087;-71
2024/02/08 03:27:42;;;;;;;;;;;;;;;3.68;100.00;99050.11;108337;1255;73272;-69
2024/02/08 03:30:19;;;;;;;;;;;;;;;3.67;100.00;99052.36;108397;1251;59741;-70
2024/02/08 03:32:47;;;;;;;;;;;;;;;3.64;100.00;99048.11;108489;1251;61112;-70
2024/02/08 03:35:14;;;;;;;;;;;;;;;3.66;100.00;99054.89;108402;1251;75549;-70
2024/02/08 03:37:43;;;;;;;;;;;;;;;3.66;100.00;99057.89;108387;1251;71215;-69
2024/02/08 03:40:11;;;;;;;;;;;;;;;3.64;100.00;99061.94;108389;1251;72444;-70
2024/02/08 03:42:37;;;;;;;;;;;;;;;3.60;100.00;99067.98;108350;1251;61095;-71
2024/02/08 03:45:06;;;;;;;;;;;;;;;3.58;100.00;99067.95;108440;1251;60015;-70
2024/02/08 03:47:33;;;;;;;;;;;;;;;3.54;100.00;99065.74;108357;1251;74639;-70
2024/02/08 03:50:00;;;;;;;;;;;;;;;3.54;100.00;99068.27;108383;1251;72508;-70
2024/02/08 03:52:30;;;;;;;;;;;;;;;3.54;100.00;99085.59;108350;1251;72460;-71
2024/02/08 03:54:57;;;;;;;;;;;;;;;3.51;100.00;99091.41;108340;1251;61047;-70
2024/02/08 03:57:23;;;;;;;;;;;;;;;3.50;100.00;99091.79;108352;1251;59850;-70
2024/02/08 03:59:52;;;;;;;;;;;;;;;3.51;100.00;99099.75;108490;1251;73838;-70
2024/02/08 04:02:21;;;;;;;;;;;;;;;3.47;100.00;99100.77;108373;1251;72864;-70
2024/02/08 04:04:59;;;;;;;;;;;;;;;3.42;100.00;99100.86;108466;1251;72489;-70
2024/02/08 04:54:44;;;;;;;;;;;;;;;2.60;100.00;99152.09;108428;1251;74617;-70
2024/02/08 04:57:11;;;;;;;;;;;;;;;2.54;100.00;99157.38;108365;1251;72903;-71
2024/02/08 04:59:42;;;;;;;;;;;;;;;2.49;100.00;99155.84;108343;1251;71854;-70
2024/02/08 05:02:09;;;;;;;;;;;;;;;2.43;100.00;99160.40;108366;1251;61253;-70
2024/02/08 05:04:36;;;;;;;;;;;;;;;2.39;100.00;99160.65;108243;1251;61066;-71
2024/02/08 05:07:03;;;;;;;;;;;;;;;2.34;100.00;99165.77;108379;1251;75107;-70
2024/02/08 05:09:31;;;;;;;;;;;;;;;2.29;100.00;99173.17;108716;1251;71782;-70
2024/02/08 05:11:59;;;;;;;;;;;;;;;2.25;100.00;99185.60;108408;1251;72458;-70
2024/02/08 05:14:26;;;;;;;;;;;;;;;2.22;100.00;99188.90;108565;1251;61242;-70
2024/02/08 05:16:56;;;;;;;;;;;;;;;2.20;100.00;99198.23;108318;1254;61071;-70
2024/02/08 05:19:26;;;;;;;;;;;;;;;2.16;100.00;99200.58;108438;1251;73769;-70
2024/02/08 05:21:54;;;;;;;;;;;;;;;2.12;100.00;99208.84;108450;1251;72861;-70
2024/02/08 05:24:21;;;;;;;;;;;;;;;2.12;100.00;99212.75;108368;1251;71178;-70
2024/02/08 05:26:48;;;;;;;;;;;;;;;2.12;100.00;99215.02;108362;1251;61269;-69
2024/02/08 05:29:19;;;;;;;;;;;;;;;2.11;100.00;99221.64;108328;1255;61273;-71
2024/02/08 05:31:47;;;;;;;;;;;;;;;2.11;100.00;99226.38;108437;1251;74510;-72
2024/02/08 05:34:15;;;;;;;;;;;;;;;2.11;100.00;99231.64;108378;1251;72627;-71
2024/02/08 05:36:45;;;;;;;;;;;;;;;2.11;100.00;99244.29;108343;1254;71361;-71
2024/02/08 05:39:23;;;;;;;;;;;;;;;2.13;100.00;99250.21;108387;1251;61220;-71
2024/02/08 05:41:53;;;;;;;;;;;;;;;2.17;100.00;99250.66;108429;1251;61122;-70
2024/02/08 05:44:20;;;;;;;;;;;;;;;2.20;100.00;99254.36;108365;1251;75168;-70
2024/02/08 05:46:47;;;;;;;;;;;;;;;2.23;100.00;99254.83;108403;1251;72924;-70
2024/02/08 05:49:15;;;;;;;;;;;;;;;2.26;100.00;99253.10;108368;1251;71730;-71
2024/02/08 05:51:51;;;;;;;;;;;;;;;2.29;100.00;99261.23;108398;1251;61724;-70
2024/02/08 05:54:31;;;;;;;;;;;;;;;2.33;100.00;99264.58;108354;1251;61282;-69
2024/02/08 05:57:02;;;;;;;;;;;;;;;2.38;100.00;99264.48;108428;1251;73174;-70
2024/02/08 05:59:31;;;;;;;;;;;;;;;2.42;100.00;99266.96;108300;1251;73224;-69
2024/02/08 06:02:00;;;;;;;;;;;;;;;2.45;100.00;99268.27;108301;1251;72455;-71
2024/02/08 06:04:34;;;;;;;;;;;;;;;2.44;100.00;99273.21;108271;1251;61146;-70
2024/02/08 06:07:12;;;;;;;;;;;;;;;2.46;100.00;99277.30;108442;1253;61830;-69
2024/02/08 06:09:48;;;;;;;;;;;;;;;2.49;100.00;99278.62;108340;1256;74469;-70
2024/02/08 06:12:28;;;;;;;;;;;;;;;2.50;100.00;99280.75;108367;1251;74133;-70
2024/02/08 06:15:14;;;;;;;;;;;;;;;2.53;100.00;99280.23;108472;1251;72429;-69
2024/02/08 06:17:45;;;;;;;;;;;;;;;2.55;100.00;99284.02;108404;1251;61580;-68
2024/02/08 06:20:14;;;;;;;;;;;;;;;2.57;100.00;99287.16;108432;1256;61221;-69
2024/02/08 06:22:43;;;;;;;;;;;;;;;2.60;100.00;99293.59;108368;1253;74655;-69
2024/02/08 06:25:36;;;;;;;;;;;;;;;2.61;100.00;99296.14;108457;1251;71809;-70
2024/02/08 06:28:01;;;;;;;;;;;;;;;2.60;100.00;99293.76;108401;1255;72801;-70
2024/02/08 06:30:31;;;;;;;;;;;;;;;2.62;100.00;99297.15;108384;1251;61792;-71
2024/02/08 06:33:24;;;;;;;;;;;;;;;2.63;100.00;99299.37;108328;1251;60359;-70
2024/02/08 06:35:56;;;;;;;;;;;;;;;2.65;100.00;99300.10;108409;1251;73489;-69
2024/02/08 06:38:51;;;;;;;;;;;;;;;2.68;100.00;99303.60;108434;1251;73201;-69
2024/02/08 06:41:23;;;;;;;;;;;;;;;2.75;100.00;99309.61;108484;1251;73269;-71
2024/02/08 06:43:57;;;;;;;;;;;;;;;2.80;100.00;99313.11;108351;1251;61213;-70
2024/02/08 07:41:55;;;;;;;;;;;;;;;2.85;100.00;99377.06;108426;1251;61218;-69
2024/02/08 07:44:30;;;;;;;;;;;;;;;2.78;100.00;99377.34;108415;1251;75908;-69
2024/02/08 07:47:03;;;;;;;;;;;;;;;2.72;100.00;99378.67;108439;1251;73285;-69
2024/02/08 07:49:43;;;;;;;;;;;;;;;2.69;100.00;99385.23;108393;1251;72726;-69
2024/02/08 07:52:19;;;;;;;;;;;;;;;2.61;100.00;99393.66;108391;1256;61307;-70
2024/02/08 07:54:47;;;;;;;;;;;;;;;2.52;100.00;99392.81;108448;1256;61089;-70
2024/02/08 07:57:14;;;;;;;;;;;;;;;2.48;100.00;99400.27;108381;1256;74543;-69
2024/02/08 07:59:42;;;;;;;;;;;;;;;2.48;100.00;99401.13;108401;1251;73319;-68
2024/02/08 08:02:13;;;;;;;;;;;;;;;2.50;100.00;99409.06;108393;1256;73127;-69
2024/02/08 08:04:58;;;;;;;;;;;;;;;2.52;100.00;99410.41;108338;1251;61119;-68
2024/02/08 08:07:25;;;;;;;;;;;;;;;2.53;100.00;99416.03;108313;1255;60984;-67
2024/02/08 08:09:59;;;;;;;;;;;;;;;2.54;100.00;99414.64;108866;1251;73987;-70
2024/02/08 08:12:28;;;;;;;;;;;;;;;2.53;100.00;99414.13;108370;1251;71608;-70
2024/02/08 08:19:58;;;;;;;;;;;;;;;2.55;100.00;99434.20;108366;1251;61186;-68
2024/02/08 08:27:50;;;;;;;;;;;;;;;2.51;100.00;99442.66;108506;1251;71684;-68
2024/02/08 08:30:27;;;;;;;;;;;;;;;2.53;100.00;99442.55;108267;1252;61221;-69
2024/02/08 08:33:08;;;;;;;;;;;;;;;2.58;100.00;99440.91;108388;1251;61189;-70
2024/02/08 08:35:47;;;;;;;;;;;;;;;2.64;100.00;99442.97;108486;1251;75079;-72
2024/02/08 08:41:00;;;;;;;;;;;;;;;2.73;100.00;99445.95;108344;1251;71332;-70
2024/02/08 08:43:27;;;;;;;;;;;;;;;2.78;100.00;99451.08;108321;1251;62742;-70
2024/02/08 08:45:59;;;;;;;;;;;;;;;2.83;100.00;99454.35;108369;1251;61058;-70
2024/02/08 08:48:30;;;;;;;;;;;;;;;2.90;100.00;99454.70;108397;1251;74274;-70
2024/02/08 08:50:57;;;;;;;;;;;;;;;3.00;100.00;99458.06;108423;1257;72699;-69
2024/02/08 08:53:27;;;;;;;;;;;;;;;3.12;100.00;99466.52;108378;1251;74512;-69
2024/02/08 08:55:56;;;;;;;;;;;;;;;3.21;100.00;99470.74;108378;1251;61073;-70
2024/02/08 08:58:27;;;;;;;;;;;;;;;3.29;100.00;99471.64;108450;1251;61195;-71
2024/02/08 09:03:44;;;;;;;;;;;;;;;3.38;100.00;99471.27;108361;1256;73164;-69
2024/02/08 09:06:16;;;;;;;;;;;;;;;3.44;99.72;99473.02;108362;1251;73728;-66
2024/02/08 09:08:54;;;;;;;;;;;;;;;3.46;97.36;99480.89;108352;1251;61227;-69
2024/02/08 09:11:24;;;;;;;;;;;;;;;3.43;95.57;99480.94;108429;1253;61240;-68
2024/02/08 09:13:55;;;;;;;;;;;;;;;3.43;94.56;99478.02;108385;1251;76437;-69
2024/02/08 09:21:32;;;;;;;;;;;;;;;3.49;94.09;99469.99;108433;1251;61296;-68
2024/02/08 09:24:04;;;;;;;;;;;;;;;3.58;94.07;99468.88;108430;1251;61106;-68
2024/02/08 09:27:01;;;;;;;;;;;;;;;3.64;93.72;99465.24;108404;1251;74832;-69
2024/02/08 09:29:38;;;;;;;;;;;;;;;3.69;92.36;99467.86;108365;1251;72738;-68
2024/02/08 09:32:18;;;;;;;;;;;;;;;3.71;90.95;99466.77;108354;1257;73821;-69
2024/02/08 09:34:47;;;;;;;;;;;;;;;3.69;87.27;99471.45;108373;1251;61111;-69
2024/02/08 09:37:15;;;;;;;;;;;;;;;3.64;83.24;99469.00;108285;1251;61131;-70
2024/02/08 09:42:54;;;;;;;;;;;;;;;3.63;79.35;99468.30;108037;1252;72927;-68
2024/02/08 09:48:11;;;;;;;;;;;;;;;3.68;75.57;99477.61;108344;1251;61142;-69
2024/02/08 09:50:47;;;;;;;;;;;;;;;3.69;74.21;99485.55;108444;1251;61240;-69
2024/02/08 09:53:18;;;;;;;;;;;;;;;3.69;73.13;99482.14;108218;1251;245154;-69
2024/02/08 09:55:45;;;;;;;;;;;;;;;3.71;72.70;99486.23;108400;1251;71877;-68
2024/02/08 09:58:13;;;;;;;;;;;;;;;3.74;72.09;99491.45;108317;1251;72094;-69
2024/02/08 10:00:57;;;;;;;;;;;;;;;3.73;71.35;99493.19;108394;1251;62417;-70
2024/02/08 10:03:34;;;;;;;;;;;;;;;3.73;70.42;99494.45;108384;1254;61113;-70
2024/02/08 10:06:23;;;;;;;;;;;;;;;3.73;69.77;99498.30;108403;1251;75273;-70
2024/02/08 10:08:53;;;;;;;;;;;;;;;3.70;69.08;99502.58;108331;1251;71903;-70
2024/02/08 10:11:24;;;;;;;;;;;;;;;3.69;68.55;99506.58;108330;1251;71378;-67
2024/02/08 10:14:02;;;;;;;;;;;;;;;3.69;68.29;99509.16;108373;1256;61077;-70
2024/02/08 10:16:41;;;;;;;;;;;;;;;3.67;68.16;99513.51;108412;1251;61223;-69
2024/02/08 10:21:58;;;;;;;;;;;;;;;3.73;68.28;99509.23;108383;1256;71561;-70
2024/02/08 10:27:20;;;;;;;;;;;;;;;3.83;68.38;99514.16;108309;1251;61232;-68
2024/02/08 10:29:56;;;;;;;;;;;;;;;3.86;68.49;99513.27;108526;1251;61094;-69
2024/02/08 10:32:27;;;;;;;;;;;;;;;3.85;69.02;99517.77;108444;1251;74745;-69
2024/02/08 10:35:13;;;;;;;;;;;;;;;3.86;69.48;99519.71;108397;1251;72788;-68
2024/02/08 10:37:47;;;;;;;;;;;;;;;3.88;69.66;99516.46;108361;1251;72414;-69
2024/02/08 10:40:29;;;;;;;;;;;;;;;3.90;69.90;99514.97;108353;1251;61118;-70
2024/02/08 10:43:16;;;;;;;;;;;;;;;3.95;70.11;99515.36;108460;1251;61445;-71
2024/02/08 10:45:53;;;;;;;;;;;;;;;3.96;70.57;99511.38;108427;1251;74700;-69
2024/02/08 10:48:23;;;;;;;;;;;;;;;3.96;71.07;99512.81;108433;1251;72918;-69
2024/02/08 10:50:50;;;;;;;;;;;;;;;4.01;71.71;99515.48;108350;1251;70494;-69
2024/02/08 10:53:43;;;;;;;;;;;;;;;4.04;71.75;99517.11;108375;1251;61204;-68
2024/02/08 10:56:13;;;;;;;;;;;;;;;4.07;71.42;99521.96;108390;1251;61132;-70
2024/02/08 11:04:28;;;;;;;;;;;;;;;4.43;69.80;99522.90;108353;1251;71866;-70
2024/02/08 11:08:00;;;;;;;;;;;;;;;4.48;68.61;99522.50;108363;1251;61186;-71
2024/02/08 11:09:58;;;;;;;;;;;;;;;4.47;68.22;99523.86;108491;1251;61143;-69
2024/02/08 11:12:29;;;;;;;;;;;;;;;4.44;67.75;99521.65;108377;1251;74652;-69
2024/02/08 11:14:58;;;;;;;;;;;;;;;4.39;67.01;99516.82;108492;1251;71637;-69
2024/02/08 11:17:25;;;;;;;;;;;;;;;4.34;66.92;99522.76;108396;1251;73783;-69
2024/02/08 11:19:58;;;;;;;;;;;;;;;4.32;67.06;99523.31;108413;1251;61204;-71
2024/02/08 11:22:39;;;;;;;;;;;;;;;4.34;67.40;99521.75;108281;1251;61086;-70
2024/02/08 11:25:53;;;;;;;;;;;;;;;4.37;67.12;99526.04;108416;1256;74449;-69
2024/02/08 11:27:55;;;;;;;;;;;;;;;4.38;66.83;99525.27;108253;1251;73836;-68
2024/02/08 11:30:35;;;;;;;;;;;;;;;4.42;66.17;99522.40;108362;1251;71807;-70
2024/02/08 11:33:03;;;;;;;;;;;;;;;4.52;65.90;99518.95;108339;1251;61210;-70
2024/02/08 11:35:31;;;;;;;;;;;;;;;4.62;65.35;99528.20;108363;1255;61230;-68
2024/02/08 11:38:21;;;;;;;;;;;;;;;4.71;64.09;99525.25;108383;1251;76399;-69
2024/02/08 11:40:48;;;;;;;;;;;;;;;4.76;63.33;99521.98;108380;1256;72768;-68
2024/02/08 11:43:23;;;;;;;;;;;;;;;4.78;62.40;99519.59;108303;1251;71404;-69
2024/02/08 11:45:54;;;;;;;;;;;;;;;4.77;61.75;99516.72;108274;1251;60693;-68
2024/02/08 11:48:26;;;;;;;;;;;;;;;4.74;60.95;99519.58;108446;1251;61103;-69
2024/02/08 11:50:58;;;;;;;;;;;;;;;4.68;60.53;99518.33;108357;1251;74775;-68
2024/02/08 11:53:31;;;;;;;;;;;;;;;4.61;60.19;99517.02;108393;1251;72852;-68
2024/02/08 11:56:01;;;;;;;;;;;;;;;4.59;60.25;99514.67;108332;1251;72602;-69
2024/02/08 11:58:35;;;;;;;;;;;;;;;4.56;60.43;99517.27;108274;1251;61237;-71
2024/02/08 12:01:03;;;;;;;;;;;;;;;4.54;60.69;99520.15;108354;1254;60579;-70
2024/02/08 12:03:30;;;;;;;;;;;;;;;4.52;61.03;99523.61;108368;1256;73506;-70
2024/02/08 12:05:58;;;;;;;;;;;;;;;4.54;61.39;99525.17;108418;1251;72830;-70
2024/02/08 12:08:26;;;;;;;;;;;;;;;4.55;61.63;99525.41;108292;1251;71429;-69
2024/02/08 12:11:06;;;;;;;;;;;;;;;4.55;61.84;99528.73;108440;1251;61126;-70
2024/02/08 12:13:38;;;;;;;;;;;;;;;4.54;62.10;99527.02;108367;1251;61218;-69
2024/02/08 12:16:06;;;;;;;;;;;;;;;4.53;62.15;99526.36;108338;1251;73862;-68
2024/02/08 12:18:33;;;;;;;;;;;;;;;4.49;62.47;99525.73;108301;1251;72783;-69
2024/02/08 12:21:01;;;;;;;;;;;;;;;4.52;62.71;99532.29;108409;1251;73720;-69
2024/02/08 12:23:42;;;;;;;;;;;;;;;4.49;62.50;99537.42;108395;1251;59615;-69
2024/02/08 12:27:05;;;;;;;;;;;;;;;4.40;62.76;99536.02;108168;1251;61291;-69
2024/02/08 12:29:32;;;;;;;;;;;;;;;4.37;62.98;99536.88;108381;1251;73614;-70
2024/02/08 12:31:59;;;;;;;;;;;;;;;4.35;63.19;99535.35;108373;1251;72990;-69
2024/02/08 12:34:33;;;;;;;;;;;;;;;4.31;63.23;99537.63;108313;1251;71494;-69
2024/02/08 12:37:05;;;;;;;;;;;;;;;4.27;63.18;99542.10;108448;1251;61245;-71
2024/02/08 12:39:44;;;;;;;;;;;;;;;4.26;63.36;99548.59;108405;1251;61225;-70
2024/02/08 12:42:13;;;;;;;;;;;;;;;4.27;62.55;99550.40;108379;1251;72783;-69
2024/02/08 12:44:40;;;;;;;;;;;;;;;4.25;60.71;99546.73;108552;1251;73662;-70
2024/02/08 12:47:09;;;;;;;;;;;;;;;4.23;58.70;99551.03;108332;1251;73411;-67
2024/02/08 12:49:36;;;;;;;;;;;;;;;4.22;57.28;99543.72;108474;1251;61217;-70
2024/02/08 12:52:09;;;;;;;;;;;;;;;4.21;56.74;99548.05;108383;1251;61816;-67
2024/02/08 12:54:37;;;;;;;;;;;;;;;4.24;56.50;99552.05;108522;1251;74754;-67
2024/02/08 12:57:08;;;;;;;;;;;;;;;4.26;55.99;99548.74;108337;1251;73723;-68
2024/02/08 12:59:35;;;;;;;;;;;;;;;4.29;55.87;99546.69;108354;1251;72725;-68
2024/02/08 13:02:08;;;;;;;;;;;;;;;4.33;56.05;99543.52;108380;1251;61115;-70
2024/02/08 13:04:43;;;;;;;;;;;;;;;4.39;56.11;99539.92;108360;1251;61236;-71
2024/02/08 13:07:17;;;;;;;;;;;;;;;4.43;55.48;99543.73;108317;1254;75119;-70
2024/02/08 13:09:45;;;;;;;;;;;;;;;4.43;55.06;99536.38;108334;1251;72831;-69
2024/02/08 13:12:15;;;;;;;;;;;;;;;4.43;55.11;99535.64;108427;1251;73885;-69
2024/02/08 13:14:49;;;;;;;;;;;;;;;4.42;55.10;99541.45;108420;1251;61057;-69
2024/02/08 13:17:20;;;;;;;;;;;;;;;4.41;55.21;99545.45;108358;1251;61062;-69
2024/02/08 13:19:47;;;;;;;;;;;;;;;4.39;54.77;99548.11;108360;1251;74626;-69
2024/02/08 13:22:15;;;;;;;;;;;;;;;4.33;54.69;99550.92;108429;1254;72088;-70
2024/02/08 13:24:45;;;;;;;;;;;;;;;4.28;54.87;99549.98;108578;1255;71414;-69
2024/02/08 13:27:12;;;;;;;;;;;;;;;4.24;54.68;99549.88;108337;1255;59217;-68
2024/02/08 13:29:41;;;;;;;;;;;;;;;4.20;54.87;99550.83;108440;1251;61206;-70
2024/02/08 13:32:08;;;;;;;;;;;;;;;4.15;55.00;99549.90;108335;1252;75645;-68
2024/02/08 13:34:35;;;;;;;;;;;;;;;4.12;55.24;99554.50;108393;1251;73842;-68
2024/02/08 13:37:02;;;;;;;;;;;;;;;4.09;55.68;99556.63;108388;1251;72037;-69
2024/02/08 13:39:32;;;;;;;;;;;;;;;4.03;55.80;99559.31;108416;1251;61086;-69
2024/02/08 13:41:59;;;;;;;;;;;;;;;3.95;56.32;99560.13;108341;1251;60037;-70
2024/02/08 13:44:26;;;;;;;;;;;;;;;3.92;56.60;99561.97;108420;1251;74636;-69
2024/02/08 13:46:54;;;;;;;;;;;;;;;3.88;56.69;99559.86;108382;1251;71256;-70
2024/02/08 13:49:24;;;;;;;;;;;;;;;3.87;57.04;99568.27;108442;1251;72695;-70
2024/02/08 13:51:52;;;;;;;;;;;;;;;3.85;57.33;99568.30;108404;1251;61114;-70
2024/02/08 13:54:20;;;;;;;;;;;;;;;3.83;57.56;99567.77;108352;1251;61250;-69
2024/02/08 13:56:47;;;;;;;;;;;;;;;3.82;57.52;99566.25;108423;1251;74460;-70
2024/02/08 13:59:14;;;;;;;;;;;;;;;3.83;57.15;99561.65;108395;1256;72500;-70
2024/02/08 14:01:44;;;;;;;;;;;;;;;3.83;56.86;99560.70;108412;1251;72691;-70
2024/02/08 14:04:20;;;;;;;;;;;;;;;3.81;56.87;99560.66;108379;1251;61109;-69
2024/02/08 14:06:55;;;;;;;;;;;;;;;3.77;56.62;99563.55;108395;1251;60953;-70
2024/02/08 14:09:24;;;;;;;;;;;;;;;3.71;56.61;99562.87;108490;1251;74666;-70
2024/02/08 14:11:55;;;;;;;;;;;;;;;3.64;56.57;99561.47;108429;1252;74153;-70
2024/02/08 14:14:30;;;;;;;;;;;;;;;3.59;56.84;99571.66;108405;1251;71485;-69
2024/02/08 14:16:58;;;;;;;;;;;;;;;3.54;57.00;99570.83;108366;1251;61108;-69
2024/02/08 14:19:33;;;;;;;;;;;;;;;3.48;57.32;99576.70;108452;1251;61122;-68
2024/02/08 14:22:06;;;;;;;;;;;;;;;3.40;57.21;99580.92;108391;1251;74968;-69
2024/02/08 14:24:39;;;;;;;;;;;;;;;3.33;57.23;99585.09;108444;1251;72715;-69
2024/02/08 14:27:06;;;;;;;;;;;;;;;3.25;57.34;99593.33;108367;1251;72727;-71
2024/02/08 14:29:35;;;;;;;;;;;;;;;3.18;57.39;99587.04;108420;1251;61106;-70
2024/02/08 14:32:08;;;;;;;;;;;;;;;3.12;57.50;99585.14;108367;1251;61122;-70
2024/02/08 14:34:58;;;;;;;;;;;;;;;3.04;57.49;99582.86;108428;1251;74787;-70
2024/02/08 14:37:28;;;;;;;;;;;;;;;2.97;57.58;99587.98;108396;1251;72824;-70
2024/02/08 14:39:56;;;;;;;;;;;;;;;2.91;57.76;99591.02;108443;1251;72594;-71
2024/02/08 14:42:27;;;;;;;;;;;;;;;2.86;57.78;99595.01;108380;1251;61131;-70
2024/02/08 14:44:56;;;;;;;;;;;;;;;2.79;57.81;99588.48;108451;1251;59967;-69
2024/02/08 14:47:25;;;;;;;;;;;;;;;2.72;57.86;99594.55;108373;1251;73404;-69
2024/02/08 14:49:55;;;;;;;;;;;;;;;2.66;58.08;99596.58;108458;1251;72800;-70
2024/02/08 14:52:34;;;;;;;;;;;;;;;2.62;58.06;99598.99;108371;1251;72559;-70
2024/02/08 14:55:10;;;;;;;;;;;;;;;2.58;58.23;99602.65;108465;1251;61122;-69
2024/02/08 14:57:45;;;;;;;;;;;;;;;2.53;58.37;99603.14;108397;1253;61109;-71
2024/02/08 15:03:44;;;;;;;;;;;;;;;2.44;58.72;99598.71;108300;1251;72863;-70
2024/02/08 15:05:48;;;;;;;;;;;;;;;2.42;58.98;99592.64;108268;1251;73674;-70
2024/02/08 15:11:03;;;;;;;;;;;;;;;2.33;59.30;99592.05;108352;1251;61074;-70
2024/02/08 15:13:38;;;;;;;;;;;;;;;2.29;59.34;99595.81;108367;1251;74730;-69
2024/02/08 15:16:07;;;;;;;;;;;;;;;2.27;59.35;99606.05;108379;1251;71807;-71
2024/02/08 15:18:47;;;;;;;;;;;;;;;2.25;59.47;99599.96;108534;1251;70498;-71
2024/02/08 15:21:23;;;;;;;;;;;;;;;2.23;59.61;99593.80;108250;1251;61234;-70
2024/02/08 15:26:44;;;;;;;;;;;;;;;2.20;59.90;99601.30;108405;1251;74604;-70
2024/02/08 15:31:57;;;;;;;;;;;;;;;2.16;60.15;99604.15;108352;1251;72498;-70